createdAt,value
2022-08-03T00:00:50.007Z,3.20
2022-08-03T00:03:19.982Z,3.33
2022-08-03T00:06:04.386Z,3.00
2022-08-03T00:08:40.161Z,3.40
2022-08-03T00:11:11.820Z,3.65
2022-08-03T00:13:42.258Z,3.10
2022-08-03T00:16:13.381Z,3.80
2022-08-03T00:18:43.472Z,3.20
2022-08-03T00:21:13.615Z,3.45
2022-08-03T00:23:51.632Z,3.50
2022-08-03T00:26:24.344Z,3.28
2022-08-03T00:28:54.201Z,2.60
2022-08-03T00:31:32.225Z,3.55
2022-08-03T00:34:09.868Z,2.78
2022-08-03T00:36:39.741Z,3.05
2022-08-03T00:39:10.215Z,3.40
2022-08-03T00:41:41.672Z,3.35
2022-08-03T00:44:11.530Z,2.60
2022-08-03T00:46:41.405Z,3.25
2022-08-03T00:49:11.431Z,3.60
2022-08-03T00:51:41.420Z,4.07
2022-08-03T00:54:12.259Z,2.80
2022-08-03T00:57:00.096Z,3.30
2022-08-03T00:59:31.591Z,2.88
2022-08-03T01:02:01.712Z,3.33
2022-08-03T01:04:31.596Z,3.25
2022-08-03T01:07:10.761Z,3.60
2022-08-03T01:09:52.175Z,3.50
2022-08-03T01:12:31.252Z,2.80
2022-08-03T01:15:11.538Z,3.22
2022-08-03T01:17:50.552Z,3.63
2022-08-03T01:20:23.493Z,3.35
2022-08-03T01:23:12.304Z,3.80
2022-08-03T01:26:01.010Z,3.03
2022-08-03T01:28:55.085Z,3.33
2022-08-03T01:34:04.182Z,3.35
2022-08-03T01:36:41.663Z,3.15
2022-08-03T01:39:12.591Z,3.67
2022-08-03T01:41:49.594Z,3.10
2022-08-03T01:44:29.068Z,3.50
2022-08-03T01:47:03.813Z,3.25
2022-08-03T01:49:37.965Z,3.53
2022-08-03T01:52:09.065Z,2.95
2022-08-03T01:54:44.309Z,3.33
2022-08-03T01:57:15.217Z,3.40
2022-08-03T01:59:48.684Z,3.92
2022-08-03T02:02:32.628Z,5.22
2022-08-03T02:05:10.914Z,4.85
2022-08-03T02:07:42.975Z,4.90
2022-08-03T02:10:16.164Z,5.63
2022-08-03T02:13:08.432Z,3.90
2022-08-03T02:15:40.506Z,4.90
2022-08-03T02:18:12.922Z,4.75
2022-08-03T02:20:45.577Z,3.97
2022-08-03T02:23:17.222Z,3.85
2022-08-03T02:25:52.076Z,3.97
2022-08-03T02:28:23.394Z,3.50
2022-08-03T02:30:55.714Z,4.32
2022-08-03T02:33:31.677Z,3.72
2022-08-03T02:36:03.583Z,3.33
2022-08-03T02:38:37.268Z,3.90
2022-08-03T02:44:07.111Z,3.95
2022-08-03T02:46:35.048Z,4.32
2022-08-03T02:49:40.623Z,3.47
2022-08-03T02:52:00.292Z,3.80
2022-08-03T02:54:31.838Z,3.30
2022-08-03T02:57:03.415Z,4.03
2022-08-03T02:59:33.687Z,3.88
2022-08-03T03:02:04.034Z,3.85
2022-08-03T03:04:36.238Z,3.75
2022-08-03T03:07:06.807Z,3.47
2022-08-03T03:09:42.012Z,3.75
2022-08-03T03:12:15.207Z,4.53
2022-08-03T03:14:45.807Z,3.30
2022-08-03T03:17:17.813Z,4.07
2022-08-03T03:19:51.160Z,3.92
2022-08-03T03:22:22.949Z,4.13
2022-08-03T03:24:54.739Z,4.05
2022-08-03T03:27:25.112Z,4.47
2022-08-03T03:29:58.270Z,3.47
2022-08-03T03:32:29.109Z,4.30
2022-08-03T03:35:01.325Z,4.07
2022-08-03T03:37:31.414Z,3.78
2022-08-03T03:40:01.463Z,4.57
2022-08-03T03:42:31.855Z,3.90
2022-08-03T03:45:05.091Z,4.47
2022-08-03T03:47:35.656Z,4.50
2022-08-03T03:50:08.245Z,4.55
2022-08-03T03:52:38.357Z,4.47
2022-08-03T03:55:09.410Z,5.80
2022-08-03T03:57:39.319Z,4.57
2022-08-03T04:00:10.425Z,4.80
2022-08-03T04:02:40.613Z,4.45
2022-08-03T04:05:30.160Z,5.35
2022-08-03T04:08:19.554Z,6.90
2022-08-03T04:11:00.719Z,4.53
2022-08-03T04:13:34.716Z,5.47
2022-08-03T04:16:06.367Z,5.70
2022-08-03T04:18:39.560Z,4.68
2022-08-03T04:21:16.309Z,5.38
2022-08-03T04:23:49.972Z,5.53
2022-08-03T04:28:55.757Z,6.68
2022-08-03T04:31:27.252Z,4.53
2022-08-03T04:33:57.943Z,4.90
2022-08-03T04:36:33.721Z,4.78
2022-08-03T04:39:07.943Z,5.22
2022-08-03T04:42:04.412Z,4.95
2022-08-03T04:44:32.882Z,5.30
2022-08-03T04:47:03.612Z,5.23
2022-08-03T04:49:34.027Z,5.75
2022-08-03T04:52:06.087Z,5.53
2022-08-03T04:54:41.035Z,6.13
2022-08-03T04:57:11.624Z,5.40
2022-08-03T05:00:02.524Z,6.45
2022-08-03T05:02:33.623Z,5.75
2022-08-03T05:05:03.629Z,7.07
2022-08-03T05:07:36.185Z,6.90
2022-08-03T05:10:15.977Z,6.55
2022-08-03T05:12:47.553Z,7.32
2022-08-03T05:15:18.056Z,6.90
2022-08-03T05:17:47.892Z,7.40
2022-08-03T05:20:18.891Z,6.72
2022-08-03T05:22:50.662Z,8.55
2022-08-03T05:25:23.369Z,6.50
2022-08-03T05:27:57.338Z,6.45
2022-08-03T05:30:34.161Z,7.30
2022-08-03T05:33:04.991Z,8.45
2022-08-03T05:36:02.675Z,8.65
2022-08-03T05:38:34.280Z,7.30
2022-08-03T05:41:20.570Z,8.27
2022-08-03T05:43:54.979Z,10.48
2022-08-03T05:46:25.047Z,9.95
2022-08-03T05:48:55.159Z,10.90
2022-08-03T05:51:26.390Z,8.07
2022-08-03T05:53:58.568Z,12.95
2022-08-03T05:56:33.709Z,9.48
2022-08-03T05:59:28.705Z,8.32
2022-08-03T06:01:55.888Z,10.48
2022-08-03T06:04:26.098Z,8.65
2022-08-03T06:06:56.603Z,7.63
2022-08-03T06:09:56.588Z,7.97
2022-08-03T06:12:20.856Z,7.50
2022-08-03T06:14:53.626Z,8.43
2022-08-03T06:17:27.870Z,7.88
2022-08-03T06:20:14.937Z,7.85
2022-08-03T06:22:50.874Z,7.15
2022-08-03T06:25:26.153Z,7.78
2022-08-03T06:27:56.852Z,7.95
2022-08-03T06:30:27.452Z,8.90
2022-08-03T06:32:58.919Z,8.48
2022-08-03T06:35:31.705Z,8.35
2022-08-03T06:38:01.775Z,8.48
2022-08-03T06:40:40.214Z,8.57
2022-08-03T06:43:12.861Z,9.60
2022-08-03T06:45:47.685Z,10.10
2022-08-03T06:48:18.909Z,21.73
2022-08-03T06:50:49.461Z,7.45
2022-08-03T06:53:19.850Z,7.88
2022-08-03T06:55:59.974Z,9.90
2022-08-03T06:58:31.733Z,7.05
2022-08-03T07:01:02.597Z,5.70
2022-08-03T07:03:34.291Z,5.28
2022-08-03T07:06:05.636Z,5.10
2022-08-03T07:08:36.243Z,5.45
2022-08-03T07:11:10.890Z,4.82
2022-08-03T07:13:43.891Z,4.43
2022-08-03T07:16:14.257Z,5.20
2022-08-03T07:18:44.768Z,4.60
2022-08-03T07:21:16.807Z,3.85
2022-08-03T07:23:50.020Z,4.10
2022-08-03T07:26:23.229Z,4.45
2022-08-03T07:28:55.194Z,4.22
2022-08-03T07:31:26.374Z,4.47
2022-08-03T07:34:00.376Z,5.95
2022-08-03T07:36:32.405Z,6.50
2022-08-03T07:41:55.250Z,5.80
2022-08-03T07:44:25.933Z,5.65
2022-08-03T07:46:59.190Z,4.97
2022-08-03T07:49:34.527Z,5.35
2022-08-03T07:52:23.297Z,4.65
2022-08-03T07:54:59.787Z,4.40
2022-08-03T07:57:32.206Z,4.93
2022-08-03T08:00:04.655Z,5.00
2022-08-03T08:02:35.229Z,4.10
2022-08-03T08:05:06.275Z,4.38
2022-08-03T08:07:36.980Z,5.05
2022-08-03T08:10:08.359Z,4.25
2022-08-03T08:12:41.685Z,3.90
2022-08-03T08:15:16.526Z,4.30
2022-08-03T08:17:49.396Z,4.25
2022-08-03T08:20:23.826Z,3.55
2022-08-03T08:23:03.633Z,4.10
2022-08-03T08:25:52.670Z,3.92
2022-08-03T08:28:32.482Z,4.03
2022-08-03T08:31:04.639Z,3.80
2022-08-03T08:36:27.511Z,4.65
2022-08-03T08:38:57.771Z,6.53
2022-08-03T08:41:32.249Z,4.53
2022-08-03T08:44:08.231Z,4.50
2022-08-03T08:46:40.948Z,4.85
2022-08-03T08:49:12.388Z,4.90
2022-08-03T08:51:59.493Z,4.63
2022-08-03T08:54:33.948Z,4.80
2022-08-03T08:57:16.387Z,4.40
2022-08-03T08:59:59.456Z,4.72
2022-08-03T09:02:32.198Z,4.32
2022-08-03T09:05:13.230Z,3.85
2022-08-03T09:07:46.298Z,4.70
2022-08-03T09:10:22.125Z,4.43
2022-08-03T09:12:54.443Z,4.53
2022-08-03T09:15:31.433Z,3.70
2022-08-03T09:18:03.813Z,4.18
2022-08-03T09:20:36.879Z,3.58
2022-08-03T09:23:59.090Z,3.65
2022-08-03T09:26:02.856Z,4.22
2022-08-03T09:28:59.942Z,4.40
2022-08-03T09:31:43.462Z,3.53
2022-08-03T09:34:15.630Z,3.72
2022-08-03T09:36:47.917Z,3.90
2022-08-03T09:39:41.802Z,3.50
2022-08-03T09:42:14.766Z,3.95
2022-08-03T09:44:46.698Z,3.20
2022-08-03T09:47:31.303Z,2.92
2022-08-03T09:50:10.728Z,3.50
2022-08-03T09:52:49.597Z,3.30
2022-08-03T09:56:35.040Z,3.58
2022-08-03T09:58:16.623Z,3.40
2022-08-03T10:00:59.504Z,3.30
2022-08-03T10:03:33.145Z,3.08
2022-08-03T10:06:17.149Z,3.35
2022-08-03T10:08:48.078Z,3.15
2022-08-03T10:11:31.625Z,3.17
2022-08-03T10:14:05.086Z,3.47
2022-08-03T10:16:37.588Z,4.30
2022-08-03T10:19:11.534Z,3.78
2022-08-03T10:21:50.833Z,3.05
2022-08-03T10:24:28.084Z,3.80
2022-08-03T10:27:03.277Z,3.75
2022-08-03T10:29:40.634Z,3.85
2022-08-03T10:32:17.861Z,3.38
2022-08-03T10:34:59.830Z,3.10
2022-08-03T10:37:33.793Z,3.72
2022-08-03T10:40:05.118Z,4.20
2022-08-03T10:42:37.242Z,4.45
2022-08-03T10:45:10.868Z,3.08
2022-08-03T10:47:43.537Z,4.00
2022-08-03T10:50:16.787Z,3.65
2022-08-03T10:52:58.691Z,3.53
2022-08-03T10:55:54.156Z,3.28
2022-08-03T10:58:57.643Z,3.50
2022-08-03T11:02:00.042Z,3.80
2022-08-03T11:04:36.477Z,3.45
2022-08-03T11:07:25.307Z,3.65
2022-08-03T11:09:57.365Z,3.30
2022-08-03T11:12:32.281Z,3.33
2022-08-03T11:15:07.928Z,3.35
2022-08-03T11:17:46.449Z,3.55
2022-08-03T11:20:48.495Z,3.53
2022-08-03T11:24:04.810Z,3.55
2022-08-03T11:26:36.338Z,3.53
2022-08-03T11:29:29.295Z,3.28
2022-08-03T11:31:59.664Z,3.63
2022-08-03T11:34:32.176Z,3.38
2022-08-03T11:37:32.972Z,2.78
2022-08-03T11:40:36.282Z,3.25
2022-08-03T11:43:08.460Z,3.42
2022-08-03T11:45:57.318Z,3.33
2022-08-03T11:48:37.524Z,3.38
2022-08-03T11:51:21.324Z,3.40
2022-08-03T11:53:56.674Z,4.15
2022-08-03T11:56:44.434Z,3.47
2022-08-03T11:59:22.227Z,3.45
2022-08-03T12:01:53.637Z,3.25
2022-08-03T12:04:24.127Z,3.25
2022-08-03T12:07:02.117Z,2.90
2022-08-03T12:09:34.500Z,3.00
2022-08-03T12:12:07.079Z,3.35
2022-08-03T12:14:51.094Z,3.33
2022-08-03T12:17:25.027Z,2.95
2022-08-03T12:19:55.473Z,2.97
2022-08-03T12:22:33.404Z,3.25
2022-08-03T12:25:03.764Z,3.20
2022-08-03T12:27:39.380Z,3.63
2022-08-03T12:30:15.652Z,3.63
2022-08-03T12:32:48.413Z,3.40
2022-08-03T12:35:25.975Z,3.25
2022-08-03T12:37:58.577Z,3.78
2022-08-03T12:40:32.095Z,3.63
2022-08-03T12:43:18.048Z,3.40
2022-08-03T12:45:48.367Z,3.83
2022-08-03T12:48:18.883Z,3.22
2022-08-03T12:50:55.905Z,3.83
2022-08-03T12:53:30.308Z,3.92
2022-08-03T12:56:05.152Z,3.17
2022-08-03T12:58:41.820Z,3.40
2022-08-03T13:01:13.834Z,3.83
2022-08-03T13:03:50.300Z,3.53
2022-08-03T13:06:26.571Z,3.55
2022-08-03T13:09:07.059Z,3.22
2022-08-03T13:11:57.231Z,4.18
2022-08-03T13:14:31.120Z,3.63
2022-08-03T13:17:02.238Z,4.13
2022-08-03T13:19:33.948Z,4.32
2022-08-03T13:22:13.435Z,3.70
2022-08-03T13:24:45.281Z,3.60
2022-08-03T13:28:01.839Z,4.32
2022-08-03T13:30:30.273Z,4.30
2022-08-03T13:33:00.852Z,3.40
2022-08-03T13:35:31.899Z,4.20
2022-08-03T13:38:02.151Z,3.55
2022-08-03T13:40:41.307Z,3.40
2022-08-03T13:43:12.948Z,4.05
2022-08-03T13:45:54.853Z,3.20
2022-08-03T13:48:36.744Z,3.63
2022-08-03T13:51:22.103Z,6.97
2022-08-03T13:53:59.794Z,3.90
2022-08-03T13:56:31.322Z,3.47
2022-08-03T13:59:03.858Z,4.05
2022-08-03T14:01:54.371Z,4.03
2022-08-03T14:04:26.071Z,4.18
2022-08-03T14:06:56.447Z,3.45
2022-08-03T14:09:31.097Z,4.45
2022-08-03T14:12:09.030Z,4.25
2022-08-03T14:14:40.937Z,3.60
2022-08-03T14:17:13.992Z,3.92
2022-08-03T14:19:52.958Z,3.55
2022-08-03T14:22:24.551Z,3.72
2022-08-03T14:24:54.812Z,4.20
2022-08-03T14:27:31.597Z,6.28
2022-08-03T14:30:02.516Z,7.30
2022-08-03T14:32:34.690Z,3.70
2022-08-03T14:35:05.586Z,4.55
2022-08-03T14:37:38.691Z,3.85
2022-08-03T14:40:10.330Z,8.05
2022-08-03T14:42:44.039Z,5.10
2022-08-03T14:45:19.826Z,5.35
2022-08-03T14:50:29.052Z,3.70
2022-08-03T14:53:28.784Z,4.30
2022-08-03T14:56:05.314Z,5.32
2022-08-03T14:58:39.959Z,3.63
2022-08-03T15:02:04.776Z,3.47
2022-08-03T15:04:03.286Z,3.60
2022-08-03T15:06:34.303Z,3.97
2022-08-03T15:09:21.737Z,3.38
2022-08-03T15:11:54.948Z,3.40
2022-08-03T15:14:32.366Z,3.63
2022-08-03T15:17:04.594Z,4.05
2022-08-03T15:20:00.219Z,4.10
2022-08-03T15:22:35.062Z,3.75
2022-08-03T15:26:28.791Z,3.40
2022-08-03T15:28:07.118Z,3.50
2022-08-03T15:30:38.601Z,3.90
2022-08-03T15:33:09.159Z,3.45
2022-08-03T15:35:42.443Z,3.95
2022-08-03T15:38:21.449Z,4.57
2022-08-03T15:40:54.684Z,4.40
2022-08-03T15:43:30.330Z,3.92
2022-08-03T15:48:51.365Z,3.97
2022-08-03T15:51:23.835Z,4.45
2022-08-03T15:53:54.134Z,5.22
2022-08-03T15:59:12.118Z,4.50
2022-08-03T16:01:45.004Z,3.60
2022-08-03T16:04:17.239Z,5.63
2022-08-03T16:06:49.766Z,4.32
2022-08-03T16:09:24.186Z,6.50
2022-08-03T16:12:16.149Z,7.75
2022-08-03T16:14:52.969Z,3.53
2022-08-03T16:17:24.843Z,3.30
2022-08-03T16:19:55.472Z,3.67
2022-08-03T16:22:28.005Z,3.40
2022-08-03T16:25:03.524Z,4.25
2022-08-03T16:27:56.762Z,4.25
2022-08-03T16:30:32.150Z,3.78
2022-08-03T16:33:05.498Z,3.97
2022-08-03T16:35:36.829Z,3.70
2022-08-03T16:38:18.555Z,3.95
2022-08-03T16:40:52.226Z,4.10
2022-08-03T16:45:56.282Z,3.90
2022-08-03T16:48:28.073Z,5.00
2022-08-03T16:50:58.759Z,4.22
2022-08-03T16:53:33.241Z,4.53
2022-08-03T16:56:23.320Z,4.72
2022-08-03T16:58:55.791Z,4.43
2022-08-03T17:01:29.287Z,4.10
2022-08-03T17:04:10.327Z,5.38
2022-08-03T17:06:45.384Z,4.28
2022-08-03T17:09:19.072Z,4.40
2022-08-03T17:11:52.654Z,4.70
2022-08-03T17:14:28.548Z,5.35
2022-08-03T17:17:04.480Z,5.32
2022-08-03T17:19:47.195Z,5.13
2022-08-03T17:22:20.853Z,5.17
2022-08-03T17:24:57.302Z,4.90
2022-08-03T17:28:48.091Z,5.60
2022-08-03T17:30:43.207Z,5.60
2022-08-03T17:33:20.857Z,5.35
2022-08-03T17:35:56.627Z,6.97
2022-08-03T17:38:38.076Z,4.93
2022-08-03T17:41:11.284Z,5.97
2022-08-03T17:44:08.128Z,5.35
2022-08-03T17:46:34.607Z,5.35
2022-08-03T17:49:23.753Z,6.07
2022-08-03T17:52:03.393Z,6.45
2022-08-03T17:58:02.004Z,6.80
2022-08-03T18:00:52.218Z,6.72
2022-08-03T18:03:59.118Z,5.78
2022-08-03T18:06:37.117Z,5.30
2022-08-03T18:10:04.944Z,5.93
2022-08-03T18:12:07.241Z,5.60
2022-08-03T18:14:57.782Z,6.32
2022-08-03T18:17:55.736Z,5.27
2022-08-03T18:20:32.966Z,6.55
2022-08-03T18:23:09.188Z,5.50
2022-08-03T18:25:53.736Z,5.03
2022-08-03T18:28:33.060Z,4.68
2022-08-03T18:34:18.878Z,4.53
2022-08-03T18:36:39.372Z,6.22
2022-08-03T18:39:14.687Z,12.68
2022-08-03T18:41:46.850Z,34.90
2022-08-03T18:44:53.276Z,19.58
2022-08-03T18:47:51.605Z,33.53
2022-08-03T18:50:32.029Z,8.30
2022-08-03T18:53:15.790Z,18.92
2022-08-03T18:56:01.316Z,20.60
2022-08-03T18:58:42.615Z,12.10
2022-08-03T19:02:00.269Z,16.80
2022-08-03T19:04:30.645Z,20.67
2022-08-03T19:07:05.148Z,19.98
2022-08-03T19:09:52.413Z,9.93
2022-08-03T19:12:32.512Z,16.77
2022-08-03T19:18:17.427Z,18.07
2022-08-03T19:20:53.177Z,12.93
2022-08-03T19:23:33.916Z,8.00
2022-08-03T19:26:07.465Z,5.80
2022-08-03T19:28:59.400Z,7.77
2022-08-03T19:31:34.997Z,5.22
2022-08-03T19:34:06.675Z,8.98
2022-08-03T19:36:44.298Z,7.45
2022-08-03T19:39:14.555Z,11.98
2022-08-03T19:41:51.526Z,9.80
2022-08-03T19:44:32.217Z,7.60
2022-08-03T19:47:11.418Z,5.75
2022-08-03T19:50:02.806Z,5.43
2022-08-03T19:52:42.631Z,5.25
2022-08-03T19:55:14.098Z,4.10
2022-08-03T19:57:49.163Z,3.45
2022-08-03T20:00:26.692Z,3.35
2022-08-03T20:03:01.060Z,3.75
2022-08-03T20:05:44.970Z,3.42
2022-08-03T20:08:24.220Z,3.60
2022-08-03T20:10:55.793Z,3.13
2022-08-03T20:13:32.694Z,3.13
2022-08-03T20:16:10.929Z,3.08
2022-08-03T20:18:43.570Z,3.40
2022-08-03T20:21:18.955Z,4.00
2022-08-03T20:27:00.600Z,3.08
2022-08-03T20:32:26.868Z,3.30
2022-08-03T20:34:58.731Z,3.05
2022-08-03T20:37:30.632Z,2.80
2022-08-03T20:40:11.697Z,3.20
2022-08-03T20:42:56.543Z,3.10
2022-08-03T20:45:59.800Z,3.22
2022-08-03T20:48:22.792Z,3.13
2022-08-03T20:50:59.593Z,3.50
2022-08-03T20:53:57.102Z,3.08
2022-08-03T20:56:35.821Z,3.00
2022-08-03T20:59:14.983Z,3.15
2022-08-03T21:02:02.118Z,3.47
2022-08-03T21:04:33.108Z,3.40
2022-08-03T21:07:16.281Z,3.35
2022-08-03T21:09:57.077Z,3.58
2022-08-03T21:12:38.234Z,3.40
2022-08-03T21:13:01.803Z,17.38
2022-08-03T21:13:04.462Z,6.47
2022-08-03T21:13:06.785Z,3.30
2022-08-03T21:16:02.252Z,3.53
2022-08-03T21:18:12.201Z,3.50
2022-08-03T21:20:47.100Z,3.65
2022-08-03T21:23:39.808Z,3.45
2022-08-03T21:26:34.421Z,3.47
2022-08-03T21:29:08.610Z,3.00
2022-08-03T21:31:41.359Z,3.30
2022-08-03T21:34:12.936Z,3.10
2022-08-03T21:36:43.373Z,3.53
2022-08-03T21:39:14.542Z,3.30
2022-08-03T21:41:46.253Z,3.20
2022-08-03T21:44:28.861Z,3.47
2022-08-03T21:47:05.683Z,3.20
2022-08-03T21:50:05.805Z,2.97
2022-08-03T21:52:33.648Z,3.33
2022-08-03T21:55:07.176Z,3.50
2022-08-03T21:57:40.642Z,3.40
2022-08-03T22:00:15.877Z,3.72
2022-08-03T22:02:55.754Z,3.53
2022-08-03T22:05:43.610Z,3.45
2022-08-03T22:08:17.157Z,4.25
2022-08-03T22:10:49.333Z,3.75
2022-08-03T22:13:43.645Z,4.13
2022-08-03T22:16:17.548Z,3.72
2022-08-03T22:18:50.340Z,4.40
2022-08-03T22:21:28.136Z,4.15
2022-08-03T22:24:08.274Z,4.07
2022-08-03T22:27:04.811Z,3.42
2022-08-03T22:29:38.322Z,3.72
2022-08-03T22:32:12.491Z,4.13
2022-08-03T22:34:44.967Z,4.13
2022-08-03T22:37:22.161Z,4.00
2022-08-03T22:39:56.330Z,4.03
2022-08-03T22:42:29.006Z,4.20
2022-08-03T22:44:59.909Z,3.92
2022-08-03T22:47:43.831Z,4.10
2022-08-03T22:50:31.580Z,4.50
2022-08-03T22:53:05.890Z,3.70
2022-08-03T22:55:40.709Z,4.65
2022-08-03T22:58:15.889Z,3.78
2022-08-03T23:00:53.629Z,4.32
2022-08-03T23:04:00.285Z,4.22
2022-08-03T23:08:59.085Z,4.43
2022-08-03T23:11:30.095Z,3.83
2022-08-03T23:14:06.192Z,3.67
2022-08-03T23:16:40.579Z,3.88
2022-08-03T23:19:17.206Z,4.10
2022-08-03T23:24:37.393Z,4.38
2022-08-03T23:27:09.209Z,3.70
2022-08-03T23:29:44.129Z,3.60
2022-08-03T23:32:15.673Z,4.25
2022-08-03T23:35:07.694Z,3.65
2022-08-03T23:38:04.333Z,4.13
2022-08-03T23:40:32.677Z,4.25
2022-08-03T23:43:04.648Z,4.10
2022-08-03T23:45:38.068Z,4.80
2022-08-03T23:48:08.161Z,4.28
2022-08-03T23:50:47.415Z,4.40
2022-08-03T23:53:23.810Z,4.88
2022-08-03T23:56:13.766Z,4.32
2022-08-03T23:59:07.637Z,4.47
